createdAt,value
2018-05-16T00:02:24.167Z,15.57
2018-05-16T00:04:51.647Z,16.25
2018-05-16T00:07:19.111Z,14.93
2018-05-16T00:09:46.607Z,14.60
2018-05-16T00:12:14.826Z,14.73
2018-05-16T00:14:42.400Z,13.80
2018-05-16T00:17:09.863Z,14.35
2018-05-16T00:19:37.423Z,13.90
2018-05-16T00:22:04.984Z,14.50
2018-05-16T00:24:32.538Z,13.10
2018-05-16T00:26:59.998Z,13.20
2018-05-16T00:29:27.558Z,14.45
2018-05-16T00:31:55.038Z,13.38
2018-05-16T00:34:23.292Z,15.70
2018-05-16T00:36:50.781Z,15.40
2018-05-16T00:39:19.015Z,15.18
2018-05-16T00:41:46.607Z,14.45
2018-05-16T00:44:14.076Z,14.82
2018-05-16T00:46:42.333Z,13.57
2018-05-16T00:49:09.807Z,14.32
2018-05-16T00:51:38.066Z,14.18
2018-05-16T00:54:05.523Z,14.45
2018-05-16T00:56:33.011Z,14.93
2018-05-16T00:59:00.493Z,15.73
2018-05-16T01:01:27.978Z,15.73
2018-05-16T01:03:55.441Z,15.57
2018-05-16T01:06:22.943Z,15.38
2018-05-16T01:08:51.177Z,16.37
2018-05-16T01:11:18.663Z,14.73
2018-05-16T01:13:46.155Z,16.33
2018-05-16T01:16:13.670Z,14.30
2018-05-16T01:18:41.944Z,17.35
2018-05-16T01:21:09.452Z,17.17
2018-05-16T01:23:36.939Z,16.02
2018-05-16T01:26:04.399Z,16.10
2018-05-16T01:28:31.902Z,17.08
2018-05-16T01:31:00.145Z,15.75
2018-05-16T01:33:27.627Z,14.30
2018-05-16T01:35:55.853Z,16.10
2018-05-16T01:38:23.347Z,14.05
2018-05-16T01:40:50.809Z,14.98
2018-05-16T01:43:18.286Z,13.93
2018-05-16T01:45:46.538Z,14.63
2018-05-16T01:48:13.993Z,13.57
2018-05-16T01:50:41.559Z,11.75
2018-05-16T01:53:09.034Z,11.23
2018-05-16T01:55:36.512Z,12.80
2018-05-16T01:58:03.974Z,12.02
2018-05-16T02:00:31.471Z,11.63
2018-05-16T02:02:58.936Z,12.05
2018-05-16T02:05:26.468Z,12.20
2018-05-16T02:07:53.925Z,11.65
2018-05-16T02:10:21.433Z,10.38
2018-05-16T02:12:48.983Z,9.10
2018-05-16T02:15:16.482Z,9.77
2018-05-16T02:17:43.947Z,9.43
2018-05-16T02:20:11.395Z,8.33
2018-05-16T02:22:38.925Z,8.30
2018-05-16T02:25:06.475Z,8.30
2018-05-16T02:27:33.965Z,8.00
2018-05-16T02:30:02.181Z,7.10
2018-05-16T02:32:29.742Z,7.87
2018-05-16T02:34:57.242Z,8.30
2018-05-16T02:37:24.795Z,6.90
2018-05-16T02:39:52.950Z,6.10
2018-05-16T02:42:20.525Z,7.68
2018-05-16T02:44:47.982Z,7.82
2018-05-16T02:47:15.460Z,7.80
2018-05-16T02:49:43.681Z,8.30
2018-05-16T02:52:11.190Z,8.15
2018-05-16T02:54:38.731Z,8.70
2018-05-16T02:57:06.195Z,8.05
2018-05-16T02:59:33.671Z,8.52
2018-05-16T03:02:01.910Z,8.68
2018-05-16T03:04:29.374Z,8.80
2018-05-16T03:06:56.957Z,9.38
2018-05-16T03:09:24.427Z,9.35
2018-05-16T03:11:52.681Z,9.55
2018-05-16T03:14:20.241Z,11.90
2018-05-16T03:16:47.698Z,11.07
2018-05-16T03:19:15.946Z,9.55
2018-05-16T03:21:43.402Z,9.70
2018-05-16T03:24:10.878Z,10.60
2018-05-16T03:26:38.343Z,10.63
2018-05-16T03:29:05.823Z,11.70
2018-05-16T03:31:33.284Z,10.57
2018-05-16T03:34:00.751Z,10.98
2018-05-16T03:36:29.027Z,12.90
2018-05-16T03:38:57.271Z,12.55
2018-05-16T03:41:24.755Z,14.32
2018-05-16T03:43:52.986Z,12.60
2018-05-16T03:46:20.462Z,12.48
2018-05-16T03:48:47.946Z,13.20
2018-05-16T03:51:15.496Z,14.25
2018-05-16T03:53:43.066Z,14.15
2018-05-16T03:56:12.163Z,15.32
2018-05-16T03:58:51.651Z,15.32
2018-05-16T04:01:31.140Z,14.70
2018-05-16T04:04:17.397Z,14.87
2018-05-16T04:06:44.903Z,12.50
2018-05-16T04:09:12.354Z,13.82
2018-05-16T04:11:39.867Z,13.20
2018-05-16T04:14:07.314Z,16.08
2018-05-16T04:16:34.765Z,15.50
2018-05-16T04:19:02.237Z,13.75
2018-05-16T04:21:29.705Z,14.45
2018-05-16T04:23:57.175Z,13.45
2018-05-16T04:26:24.647Z,15.27
2018-05-16T04:28:52.282Z,15.20
2018-05-16T04:31:19.762Z,17.30
2018-05-16T04:33:47.252Z,17.95
2018-05-16T04:36:15.479Z,17.17
2018-05-16T04:38:42.954Z,16.77
2018-05-16T04:41:10.418Z,17.33
2018-05-16T04:43:37.897Z,18.37
2018-05-16T04:46:05.360Z,16.23
2018-05-16T04:48:33.646Z,18.20
2018-05-16T04:51:01.894Z,16.35
2018-05-16T04:53:29.446Z,16.87
2018-05-16T04:55:56.929Z,16.15
2018-05-16T04:58:24.413Z,17.33
2018-05-16T05:00:52.808Z,18.37
2018-05-16T05:03:20.316Z,18.25
2018-05-16T05:05:47.787Z,15.93
2018-05-16T05:08:16.063Z,15.95
2018-05-16T05:10:43.534Z,14.45
2018-05-16T05:13:11.002Z,15.98
2018-05-16T05:15:38.484Z,16.50
2018-05-16T05:18:05.982Z,15.77
2018-05-16T05:20:33.542Z,16.08
2018-05-16T05:23:01.029Z,16.73
2018-05-16T05:25:29.284Z,14.55
2018-05-16T05:27:56.834Z,11.32
2018-05-16T05:30:24.329Z,13.13
2018-05-16T05:32:51.792Z,13.88
2018-05-16T05:35:19.257Z,13.80
2018-05-16T05:37:46.743Z,15.32
2018-05-16T05:40:14.219Z,12.95
2018-05-16T05:42:41.691Z,12.77
2018-05-16T05:45:09.239Z,14.90
2018-05-16T05:47:36.724Z,14.35
2018-05-16T05:50:04.976Z,13.98
2018-05-16T05:52:33.979Z,18.45
2018-05-16T05:55:01.428Z,10.65
2018-05-16T05:57:28.918Z,14.65
2018-05-16T05:59:57.205Z,16.60
2018-05-16T06:02:24.629Z,16.80
2018-05-16T06:04:52.113Z,16.40
2018-05-16T06:07:20.906Z,16.48
2018-05-16T06:09:48.402Z,15.85
2018-05-16T06:12:15.849Z,14.40
2018-05-16T06:14:43.339Z,15.48
2018-05-16T06:17:10.908Z,14.77
2018-05-16T06:19:38.564Z,14.20
2018-05-16T06:22:05.923Z,14.98
2018-05-16T06:24:33.407Z,14.40
2018-05-16T06:27:01.689Z,15.27
2018-05-16T06:29:30.648Z,16.27
2018-05-16T06:31:58.124Z,14.93
2018-05-16T06:34:26.382Z,13.73
2018-05-16T06:36:53.890Z,11.23
2018-05-16T06:39:22.102Z,8.40
2018-05-16T06:41:49.608Z,10.50
2018-05-16T06:44:17.830Z,9.55
2018-05-16T06:46:45.299Z,8.00
2018-05-16T06:49:12.771Z,7.20
2018-05-16T06:51:40.247Z,7.25
2018-05-16T06:54:07.700Z,7.20
2018-05-16T06:56:35.254Z,8.13
2018-05-16T06:59:02.812Z,8.75
2018-05-16T07:01:30.287Z,6.60
2018-05-16T07:03:58.600Z,8.45
2018-05-16T07:06:26.014Z,8.30
2018-05-16T07:08:53.470Z,9.40
2018-05-16T07:11:20.957Z,8.73
2018-05-16T07:13:48.450Z,11.55
2018-05-16T07:16:15.923Z,11.43
2018-05-16T07:18:43.505Z,10.10
2018-05-16T07:21:11.961Z,9.55
2018-05-16T07:23:39.532Z,9.45
2018-05-16T07:26:07.003Z,9.57
2018-05-16T07:28:34.547Z,7.82
2018-05-16T07:31:03.546Z,8.45
2018-05-16T07:33:31.107Z,9.35
2018-05-16T07:35:58.674Z,8.63
2018-05-16T07:38:26.183Z,9.65
2018-05-16T07:40:53.664Z,10.73
2018-05-16T07:43:21.184Z,10.20
2018-05-16T07:45:49.431Z,10.15
2018-05-16T07:48:16.936Z,9.90
2018-05-16T07:50:44.451Z,9.70
2018-05-16T07:53:11.951Z,9.73
2018-05-16T07:55:39.457Z,8.77
2018-05-16T07:58:06.936Z,8.63
2018-05-16T08:00:34.448Z,9.20
2018-05-16T08:03:02.012Z,9.40
2018-05-16T08:05:29.513Z,9.85
2018-05-16T08:07:57.008Z,9.38
2018-05-16T08:10:24.504Z,9.60
2018-05-16T08:12:52.005Z,11.18
2018-05-16T08:15:20.275Z,10.20
2018-05-16T08:17:48.519Z,9.48
2018-05-16T08:20:16.027Z,8.35
2018-05-16T08:22:43.540Z,10.18
2018-05-16T08:25:11.068Z,9.35
2018-05-16T08:27:38.572Z,8.43
2018-05-16T08:30:06.055Z,7.43
2018-05-16T08:32:34.324Z,7.62
2018-05-16T08:35:02.608Z,8.50
2018-05-16T08:37:30.863Z,7.30
2018-05-16T08:39:58.331Z,8.00
2018-05-16T08:42:26.603Z,7.87
2018-05-16T08:44:54.110Z,7.28
2018-05-16T08:47:21.607Z,7.32
2018-05-16T08:49:49.087Z,6.18
2018-05-16T08:52:17.362Z,5.37
2018-05-16T08:54:44.837Z,5.32
2018-05-16T08:57:13.106Z,4.30
2018-05-16T08:59:41.358Z,4.43
2018-05-16T09:02:09.622Z,4.62
2018-05-16T09:04:37.098Z,4.12
2018-05-16T09:07:04.599Z,4.93
2018-05-16T09:09:32.096Z,5.00
2018-05-16T09:11:59.580Z,4.68
2018-05-16T09:14:27.083Z,4.80
2018-05-16T09:16:54.565Z,5.50
2018-05-16T09:19:22.071Z,5.53
2018-05-16T09:21:50.322Z,5.70
2018-05-16T09:24:17.824Z,6.25
2018-05-16T09:26:45.320Z,6.25
2018-05-16T09:29:12.819Z,7.40
2018-05-16T09:31:41.091Z,6.73
2018-05-16T09:34:08.588Z,7.85
2018-05-16T09:36:36.099Z,7.93
2018-05-16T09:39:03.603Z,8.27
2018-05-16T09:41:31.096Z,7.72
2018-05-16T09:43:58.618Z,8.77
2018-05-16T09:46:26.096Z,9.20
2018-05-16T09:48:53.577Z,7.78
2018-05-16T09:51:21.104Z,8.45
2018-05-16T09:53:48.606Z,9.73
2018-05-16T09:56:16.079Z,9.67
2018-05-16T09:58:43.589Z,9.40
2018-05-16T10:01:11.064Z,7.87
2018-05-16T10:03:38.574Z,9.23
2018-05-16T10:06:06.839Z,8.13
2018-05-16T10:08:35.100Z,8.03
2018-05-16T10:11:02.576Z,8.73
2018-05-16T10:13:30.842Z,8.33
2018-05-16T10:15:58.311Z,7.87
2018-05-16T10:18:26.596Z,7.63
2018-05-16T10:20:54.831Z,7.63
2018-05-16T10:23:22.357Z,7.23
2018-05-16T10:25:49.837Z,7.10
2018-05-16T10:28:17.311Z,7.77
2018-05-16T10:30:44.805Z,8.10
2018-05-16T10:33:13.047Z,6.77
2018-05-16T10:35:40.544Z,8.33
2018-05-16T10:38:08.020Z,7.68
2018-05-16T10:40:35.533Z,8.38
2018-05-16T10:43:02.995Z,8.67
2018-05-16T10:45:30.500Z,8.90
2018-05-16T10:47:57.987Z,8.00
2018-05-16T10:50:25.497Z,7.97
2018-05-16T10:52:52.983Z,7.03
2018-05-16T10:55:20.494Z,7.70
2018-05-16T10:57:48.740Z,6.60
2018-05-16T11:00:16.258Z,6.65
2018-05-16T11:02:43.742Z,6.80
2018-05-16T11:05:11.224Z,6.37
2018-05-16T11:07:38.727Z,7.03
2018-05-16T11:10:06.215Z,6.20
2018-05-16T11:12:33.769Z,6.37
2018-05-16T11:15:01.331Z,6.30
2018-05-16T11:17:28.831Z,7.25
2018-05-16T11:19:56.312Z,6.37
2018-05-16T11:22:24.587Z,7.90
2018-05-16T11:24:52.950Z,7.00
2018-05-16T11:27:20.461Z,6.65
2018-05-16T11:29:47.936Z,6.83
2018-05-16T11:32:15.451Z,7.77
2018-05-16T11:34:43.699Z,7.27
2018-05-16T11:37:11.216Z,7.20
2018-05-16T11:39:38.694Z,7.53
2018-05-16T11:42:06.193Z,6.37
2018-05-16T11:44:34.455Z,6.90
2018-05-16T11:47:01.945Z,6.60
2018-05-16T11:49:30.225Z,6.43
2018-05-16T11:51:58.468Z,5.80
2018-05-16T11:54:25.979Z,6.33
2018-05-16T11:56:53.453Z,6.47
2018-05-16T11:59:21.015Z,7.17
2018-05-16T12:01:48.427Z,7.30
2018-05-16T12:04:16.688Z,7.53
2018-05-16T12:06:44.176Z,6.33
2018-05-16T12:09:11.760Z,5.47
2018-05-16T12:11:39.188Z,5.83
2018-05-16T12:14:06.667Z,5.83
2018-05-16T12:16:34.172Z,5.87
2018-05-16T12:19:01.654Z,4.67
2018-05-16T12:21:29.919Z,4.30
2018-05-16T12:23:58.180Z,4.30
2018-05-16T12:26:25.675Z,4.60
2018-05-16T12:28:53.241Z,3.17
2018-05-16T12:31:20.676Z,3.57
2018-05-16T12:33:48.932Z,3.40
2018-05-16T12:36:16.442Z,3.03
2018-05-16T12:38:43.919Z,3.63
2018-05-16T12:41:11.437Z,3.00
2018-05-16T12:43:39.686Z,3.33
2018-05-16T12:46:07.163Z,3.60
2018-05-16T12:48:35.435Z,3.87
2018-05-16T12:51:02.894Z,4.00
2018-05-16T12:53:30.406Z,4.07
2018-05-16T12:55:57.894Z,3.60
2018-05-16T12:58:25.392Z,3.17
2018-05-16T13:00:52.870Z,1.87
2018-05-16T13:03:20.374Z,3.07
2018-05-16T13:05:47.827Z,2.67
2018-05-16T13:08:15.337Z,2.10
2018-05-16T13:10:42.775Z,2.27
2018-05-16T13:13:11.075Z,2.10
2018-05-16T13:15:38.597Z,1.87
2018-05-16T13:18:06.261Z,2.70
2018-05-16T13:20:33.587Z,2.87
2018-05-16T13:23:01.075Z,3.13
2018-05-16T13:25:28.567Z,3.10
2018-05-16T13:27:56.068Z,3.10
2018-05-16T13:30:23.575Z,2.70
2018-05-16T13:32:51.819Z,3.40
2018-05-16T13:35:19.341Z,3.23
2018-05-16T13:37:46.816Z,3.20
2018-05-16T13:40:14.324Z,3.63
2018-05-16T13:42:41.835Z,3.27
2018-05-16T13:45:09.349Z,4.40
2018-05-16T13:47:36.827Z,4.43
2018-05-16T13:50:04.363Z,4.23
2018-05-16T13:52:32.644Z,4.73
2018-05-16T13:55:00.120Z,4.53
2018-05-16T13:57:27.628Z,4.50
2018-05-16T13:59:55.109Z,3.60
2018-05-16T14:02:23.392Z,4.20
2018-05-16T14:04:51.700Z,4.20
2018-05-16T14:07:19.215Z,3.43
2018-05-16T14:09:47.529Z,3.10
2018-05-16T14:12:15.023Z,3.10
2018-05-16T14:14:42.505Z,3.13
2018-05-16T14:17:10.017Z,2.37
2018-05-16T14:19:37.499Z,2.50
2018-05-16T14:22:05.012Z,2.20
2018-05-16T14:24:32.484Z,1.77
2018-05-16T14:27:00.067Z,1.50
2018-05-16T14:29:27.547Z,1.83
2018-05-16T14:31:55.024Z,2.33
2018-05-16T14:34:23.363Z,1.80
2018-05-16T14:36:50.880Z,1.80
2018-05-16T14:39:18.390Z,2.53
2018-05-16T14:41:45.959Z,2.10
2018-05-16T14:44:13.471Z,2.73
2018-05-16T14:46:40.975Z,2.13
2018-05-16T14:49:08.507Z,2.17
2018-05-16T14:51:36.031Z,3.17
2018-05-16T14:54:04.315Z,2.37
2018-05-16T14:56:31.805Z,2.80
2018-05-16T14:58:59.295Z,2.57
2018-05-16T15:01:26.795Z,3.10
2018-05-16T15:03:54.344Z,3.27
2018-05-16T15:06:21.837Z,2.07
2018-05-16T15:08:49.344Z,2.53
2018-05-16T15:11:16.824Z,2.20
2018-05-16T15:13:44.311Z,2.40
2018-05-16T15:16:11.815Z,2.70
2018-05-16T15:18:39.338Z,2.50
2018-05-16T15:21:06.896Z,3.40
2018-05-16T15:23:34.460Z,2.70
2018-05-16T15:26:01.975Z,3.57
2018-05-16T15:28:30.214Z,2.60
2018-05-16T15:30:57.711Z,1.97
2018-05-16T15:33:25.957Z,2.43
2018-05-16T15:35:53.494Z,1.77
2018-05-16T15:38:21.016Z,2.07
2018-05-16T15:40:49.251Z,2.00
2018-05-16T15:43:16.738Z,2.00
2018-05-16T15:45:45.016Z,1.90
2018-05-16T15:48:13.260Z,2.30
2018-05-16T15:50:40.771Z,1.90
2018-05-16T15:53:08.264Z,1.73
2018-05-16T15:55:35.751Z,2.70
2018-05-16T15:58:03.239Z,3.40
2018-05-16T16:00:30.777Z,3.10
2018-05-16T16:02:58.273Z,3.50
2018-05-16T16:05:25.763Z,3.73
2018-05-16T16:07:53.276Z,4.50
2018-05-16T16:10:20.751Z,3.93
2018-05-16T16:12:48.313Z,4.17
2018-05-16T16:15:15.788Z,4.73
2018-05-16T16:17:43.287Z,4.60
2018-05-16T16:20:11.558Z,4.40
2018-05-16T16:22:39.144Z,4.20
2018-05-16T16:25:06.708Z,4.40
2018-05-16T16:27:34.195Z,3.67
2018-05-16T16:30:01.697Z,3.40
2018-05-16T16:32:29.375Z,3.93
2018-05-16T16:34:57.640Z,4.30
2018-05-16T16:37:25.920Z,4.10
2018-05-16T16:39:54.171Z,4.07
2018-05-16T16:42:21.688Z,3.93
2018-05-16T16:44:49.283Z,4.30
2018-05-16T16:47:16.846Z,3.40
2018-05-16T16:49:44.355Z,4.30
2018-05-16T16:52:11.839Z,4.33
2018-05-16T16:54:39.360Z,3.67
2018-05-16T16:57:07.632Z,3.97
2018-05-16T16:59:35.092Z,4.10
2018-05-16T17:02:03.360Z,3.10
2018-05-16T17:04:30.910Z,4.10
2018-05-16T17:06:58.581Z,3.72
2018-05-16T17:09:26.904Z,4.40
2018-05-16T17:11:54.420Z,3.92
2018-05-16T17:14:22.759Z,4.20
2018-05-16T17:16:50.285Z,3.90
2018-05-16T17:19:18.684Z,3.40
2018-05-16T17:21:46.190Z,4.75
2018-05-16T17:24:13.681Z,4.50
2018-05-16T17:26:41.961Z,4.67
2018-05-16T17:29:09.462Z,4.32
2018-05-16T17:31:36.997Z,4.12
2018-05-16T17:34:04.558Z,3.92
2018-05-16T17:36:32.047Z,4.10
2018-05-16T17:38:59.578Z,4.25
2018-05-16T17:41:27.048Z,4.50
2018-05-16T17:43:54.615Z,4.18
2018-05-16T17:46:22.117Z,4.97
2018-05-16T17:48:50.397Z,4.47
2018-05-16T17:51:18.658Z,5.65
2018-05-16T17:53:46.183Z,3.93
2018-05-16T17:56:13.701Z,4.90
2018-05-16T17:58:41.228Z,4.35
2018-05-16T18:01:08.710Z,3.90
2018-05-16T18:03:37.028Z,3.25
2018-05-16T18:06:04.536Z,3.62
2018-05-16T18:08:32.786Z,3.58
2018-05-16T18:11:00.297Z,3.45
2018-05-16T18:13:57.534Z,3.80
2018-05-16T18:16:37.868Z,3.22
2018-05-16T18:19:05.391Z,3.80
2018-05-16T18:21:32.955Z,3.55
2018-05-16T18:24:00.469Z,4.05
2018-05-16T18:26:28.791Z,3.70
2018-05-16T18:28:56.262Z,4.30
2018-05-16T18:31:23.797Z,6.78
2018-05-16T18:33:51.276Z,8.45
2018-05-16T18:36:18.837Z,4.97
2018-05-16T18:38:46.347Z,5.95
2018-05-16T18:41:14.620Z,3.70
2018-05-16T18:43:42.948Z,3.90
2018-05-16T18:46:10.439Z,4.10
2018-05-16T18:48:37.985Z,4.10
2018-05-16T18:51:05.495Z,4.47
2018-05-16T18:53:33.084Z,3.78
2018-05-16T18:56:00.702Z,4.10
2018-05-16T18:58:28.132Z,3.50
2018-05-16T19:00:55.633Z,4.00
2018-05-16T19:03:23.182Z,3.90
2018-05-16T19:05:51.467Z,3.87
2018-05-16T19:08:19.729Z,3.42
2018-05-16T19:10:48.010Z,3.37
2018-05-16T19:13:16.325Z,3.15
2018-05-16T19:15:43.803Z,3.92
2018-05-16T19:18:11.306Z,3.53
2018-05-16T19:20:39.579Z,2.92
2018-05-16T19:23:07.822Z,4.22
2018-05-16T19:25:35.347Z,7.45
2018-05-16T19:28:02.848Z,3.75
2018-05-16T19:30:30.360Z,4.53
2018-05-16T19:32:57.849Z,3.35
2018-05-16T19:35:25.356Z,3.70
2018-05-16T19:37:53.620Z,3.03
2018-05-16T19:40:21.899Z,3.50
2018-05-16T19:42:49.402Z,3.80
2018-05-16T19:45:16.908Z,3.40
2018-05-16T19:47:45.198Z,8.93
2018-05-16T19:50:13.456Z,9.15
2018-05-16T19:52:40.991Z,7.05
2018-05-16T19:55:08.499Z,6.60
2018-05-16T19:57:36.772Z,3.97
2018-05-16T20:00:04.283Z,4.22
2018-05-16T20:02:31.840Z,4.22
2018-05-16T20:04:59.359Z,4.70
2018-05-16T20:07:27.616Z,4.47
2018-05-16T20:09:55.119Z,4.80
2018-05-16T20:12:22.600Z,5.15
2018-05-16T20:14:50.166Z,4.10
2018-05-16T20:17:17.627Z,4.30
2018-05-16T20:19:45.148Z,3.75
2018-05-16T20:22:12.642Z,4.97
2018-05-16T20:24:40.128Z,4.82
2018-05-16T20:27:07.647Z,4.35
2018-05-16T20:29:35.119Z,4.20
2018-05-16T20:32:02.695Z,4.40
2018-05-16T20:34:30.175Z,4.90
2018-05-16T20:36:57.971Z,4.72
2018-05-16T20:39:25.475Z,4.85
2018-05-16T20:41:52.995Z,4.35
2018-05-16T20:44:20.504Z,4.10
2018-05-16T20:46:48.028Z,3.87
2018-05-16T20:49:15.527Z,5.22
2018-05-16T20:51:43.039Z,4.70
2018-05-16T20:54:10.525Z,4.80
2018-05-16T20:56:38.042Z,4.30
2018-05-16T20:59:05.526Z,5.07
2018-05-16T21:01:33.040Z,5.37
2018-05-16T21:04:01.294Z,5.70
2018-05-16T21:06:28.776Z,5.00
2018-05-16T21:08:57.051Z,4.80
2018-05-16T21:11:25.307Z,6.12
2018-05-16T21:13:52.798Z,6.25
2018-05-16T21:16:20.276Z,6.57
2018-05-16T21:18:47.783Z,6.03
2018-05-16T21:21:16.052Z,5.82
2018-05-16T21:23:43.544Z,5.60
2018-05-16T21:26:11.811Z,6.45
2018-05-16T21:28:40.154Z,5.97
2018-05-16T21:31:08.348Z,5.20
2018-05-16T21:33:35.860Z,6.35
2018-05-16T21:36:03.344Z,6.37
2018-05-16T21:38:30.844Z,5.60
2018-05-16T21:40:59.096Z,6.57
2018-05-16T21:43:26.608Z,5.65
2018-05-16T21:45:54.159Z,5.90
2018-05-16T21:48:21.619Z,5.93
2018-05-16T21:50:49.103Z,5.70
2018-05-16T21:53:16.600Z,5.57
2018-05-16T21:55:44.102Z,5.03
2018-05-16T21:58:12.243Z,6.40
2018-05-16T22:00:39.748Z,6.18
2018-05-16T22:03:07.240Z,6.30
2018-05-16T22:05:34.767Z,6.00
2018-05-16T22:08:02.243Z,6.60
2018-05-16T22:10:29.784Z,7.47
2018-05-16T22:12:57.269Z,7.30
2018-05-16T22:15:24.754Z,6.70
2018-05-16T22:17:52.268Z,6.60
2018-05-16T22:20:19.750Z,6.85
2018-05-16T22:22:47.244Z,7.30
2018-05-16T22:25:15.539Z,8.00
2018-05-16T22:27:43.023Z,7.57
2018-05-16T22:30:10.020Z,8.05
2018-05-16T22:32:44.890Z,7.50
2018-05-16T22:35:18.028Z,8.50
2018-05-16T22:37:51.141Z,7.90
2018-05-16T22:40:25.023Z,7.75
2018-05-16T22:42:52.035Z,8.38
2018-05-16T22:45:21.043Z,9.18
2018-05-16T22:47:48.539Z,9.18
2018-05-16T22:50:16.043Z,9.73
2018-05-16T22:52:43.566Z,8.40
2018-05-16T22:55:11.811Z,8.75
2018-05-16T22:57:39.323Z,9.30
2018-05-16T23:00:06.813Z,8.63
2018-05-16T23:02:34.311Z,9.38
2018-05-16T23:05:02.575Z,8.63
2018-05-16T23:07:30.068Z,9.00
2018-05-16T23:09:57.580Z,9.65
2018-05-16T23:12:25.092Z,9.10
2018-05-16T23:14:52.595Z,8.40
2018-05-16T23:17:20.093Z,9.90
2018-05-16T23:19:48.376Z,10.70
2018-05-16T23:22:16.634Z,9.07
2018-05-16T23:24:44.136Z,10.98
2018-05-16T23:27:11.638Z,10.23
2018-05-16T23:29:39.148Z,9.80
2018-05-16T23:32:06.658Z,10.68
2018-05-16T23:34:34.147Z,10.60
2018-05-16T23:37:02.414Z,11.63
2018-05-16T23:39:30.674Z,12.90
2018-05-16T23:41:58.182Z,10.95
2018-05-16T23:44:25.673Z,13.52
2018-05-16T23:46:53.174Z,11.07
2018-05-16T23:49:21.437Z,12.73
2018-05-16T23:51:48.947Z,12.45
2018-05-16T23:54:16.444Z,12.65
2018-05-16T23:56:43.969Z,13.82
2018-05-16T23:59:11.448Z,14.07
